createdAt,value
2023-12-14T02:19:46.487Z,50.876286
2023-12-14T02:20:46.445Z,50.876286
2023-12-14T02:21:46.383Z,50.876286
2023-12-14T02:22:46.391Z,50.876286
2023-12-14T02:23:46.426Z,50.876286
2023-12-14T02:24:46.442Z,50.876286
2023-12-14T02:25:46.370Z,50.876286
2023-12-14T02:27:01.855Z,50.876286
2023-12-14T02:27:47.319Z,50.876286
2023-12-14T02:28:46.388Z,50.876286
2023-12-14T02:29:46.330Z,50.876286
2023-12-14T02:30:46.311Z,50.876286
2023-12-14T02:31:46.344Z,50.876286
2023-12-14T02:32:46.352Z,50.876286
2023-12-14T02:33:46.339Z,50.876286
2023-12-14T02:34:46.346Z,50.876286
2023-12-14T02:35:46.298Z,50.876286
2023-12-14T02:36:46.272Z,50.876286
2023-12-14T02:37:46.357Z,50.876286
2023-12-14T02:38:46.348Z,50.876286
2023-12-14T02:39:46.267Z,50.876286
2023-12-14T02:40:46.233Z,50.876286
2023-12-14T02:41:46.237Z,50.876286
2023-12-14T02:42:46.235Z,50.876286
2023-12-14T02:43:46.276Z,50.876286
2023-12-14T02:44:46.222Z,50.876286
2023-12-14T02:45:46.172Z,50.876286
2023-12-14T02:46:46.227Z,50.876286
2023-12-14T02:47:46.189Z,50.876286
2023-12-14T02:48:46.200Z,50.876286
2023-12-14T02:49:46.213Z,50.876286
2023-12-14T02:50:46.141Z,50.875942
2023-12-14T02:51:46.134Z,50.875919
2023-12-14T02:52:46.148Z,50.875694
2023-12-14T02:53:46.115Z,50.875694
2023-12-14T02:54:46.106Z,50.875694
2023-12-14T02:55:46.097Z,50.875694
2023-12-14T02:56:46.073Z,50.875694
2023-12-14T02:57:46.125Z,50.875694
2023-12-14T02:58:46.132Z,50.875694
2023-12-14T02:59:46.047Z,50.875694
2023-12-14T03:00:46.067Z,50.875694
2023-12-14T03:01:46.064Z,50.875694
2023-12-14T03:02:46.031Z,50.875694
2023-12-14T03:03:46.082Z,50.875694
2023-12-14T03:04:46.017Z,50.875694
2023-12-14T03:05:46.011Z,50.875694
2023-12-14T03:06:45.948Z,50.875694
2023-12-14T03:07:45.991Z,50.875694
2023-12-14T03:08:45.950Z,50.875694
2023-12-14T03:09:46.081Z,50.875694
2023-12-14T03:10:46.032Z,50.875694
2023-12-14T03:11:45.959Z,50.875694
2023-12-14T03:12:45.917Z,50.875694
2023-12-14T03:13:45.967Z,50.875694
2023-12-14T03:14:45.924Z,50.875694
2023-12-14T03:15:45.893Z,50.875694
2023-12-14T03:16:45.898Z,50.875694
2023-12-14T03:17:46.921Z,50.875694
2023-12-14T03:18:45.898Z,50.875694
2023-12-14T03:19:45.881Z,50.875694
2023-12-14T03:20:45.836Z,50.875694
2023-12-14T03:21:45.853Z,50.875694
2023-12-14T03:22:45.849Z,50.875694
2023-12-14T03:23:45.805Z,50.875694
2023-12-14T03:24:45.769Z,50.875694
2023-12-14T03:25:45.810Z,50.875694
2023-12-14T03:26:45.788Z,50.875694
2023-12-14T03:27:45.778Z,50.875694
2023-12-14T03:28:45.794Z,50.875694
2023-12-14T03:29:45.762Z,50.875694
2023-12-14T03:30:45.815Z,50.875694
2023-12-14T03:31:45.747Z,50.875694
2023-12-14T03:32:45.763Z,50.875694
2023-12-14T03:33:45.820Z,50.875694
2023-12-14T03:34:45.707Z,50.875694
2023-12-14T03:35:45.762Z,50.875694
2023-12-14T03:36:45.668Z,50.875694
2023-12-14T03:37:45.752Z,50.875694
2023-12-14T03:38:45.659Z,50.875694
2023-12-14T03:39:45.669Z,50.875694
2023-12-14T03:40:45.655Z,50.875694
2023-12-14T03:41:45.620Z,50.875694
2023-12-14T03:42:45.636Z,50.875694
2023-12-14T03:43:45.661Z,50.875694
2023-12-14T03:44:45.625Z,50.875694
2023-12-14T03:45:45.600Z,50.875694
2023-12-14T03:46:45.630Z,50.875694
2023-12-14T03:47:45.655Z,50.875694
2023-12-14T03:48:45.593Z,50.875694
2023-12-14T03:49:45.565Z,50.875694
2023-12-14T03:50:45.571Z,50.875694
2023-12-14T03:51:45.528Z,50.875694
2023-12-14T03:52:45.532Z,50.875694
2023-12-14T03:53:45.554Z,50.875694
2023-12-14T03:54:45.573Z,50.875694
2023-12-14T03:55:45.525Z,50.875694
2023-12-14T03:56:45.454Z,50.875694
2023-12-14T03:57:45.476Z,50.875694
2023-12-14T03:58:45.492Z,50.875694
2023-12-14T03:59:45.449Z,50.875694
2023-12-14T04:00:45.442Z,50.875694
2023-12-14T04:01:45.434Z,50.875694
2023-12-14T04:02:45.443Z,50.875694
2023-12-14T04:03:45.425Z,50.875694
2023-12-14T04:04:45.440Z,50.875694
2023-12-14T04:05:45.454Z,50.875694
2023-12-14T04:06:45.377Z,50.875694
2023-12-14T04:07:45.482Z,50.878056
2023-12-14T04:08:45.369Z,50.878056
2023-12-14T04:09:45.375Z,50.878056
2023-12-14T04:10:45.366Z,50.878056
2023-12-14T04:11:45.327Z,50.878056
2023-12-14T04:12:45.341Z,50.878056
2023-12-14T04:13:45.383Z,50.878056
2023-12-14T04:14:45.311Z,50.878056
2023-12-14T04:15:45.323Z,50.878391
2023-12-14T04:16:45.334Z,50.878391
2023-12-14T04:17:45.430Z,50.877674
2023-12-14T04:18:45.391Z,50.877850
2023-12-14T04:19:45.326Z,50.877850
2023-12-14T04:20:45.284Z,50.877850
2023-12-14T04:21:45.246Z,50.877850
2023-12-14T04:22:45.407Z,50.877850
2023-12-14T04:23:45.222Z,50.877850
2023-12-14T04:24:45.222Z,50.877850
2023-12-14T04:25:45.200Z,50.877850
2023-12-14T04:26:45.198Z,50.877850
2023-12-14T04:27:45.175Z,50.877850
2023-12-14T04:28:45.322Z,50.877850
2023-12-14T04:29:45.178Z,50.877850
2023-12-14T04:30:45.176Z,50.877850
2023-12-14T04:31:45.158Z,50.877850
2023-12-14T04:32:45.195Z,50.877850
2023-12-14T04:33:45.143Z,50.877850
2023-12-14T04:34:45.176Z,50.877850
2023-12-14T04:35:45.105Z,50.877850
2023-12-14T04:36:45.107Z,50.877850
2023-12-14T04:37:45.135Z,50.877850
2023-12-14T04:38:45.132Z,50.877850
2023-12-14T04:39:45.035Z,50.877850
2023-12-14T04:40:45.106Z,50.877850
2023-12-14T04:41:45.067Z,50.877850
2023-12-14T04:42:45.018Z,50.877850
2023-12-14T04:43:45.067Z,50.877850
2023-12-14T04:44:45.009Z,50.877850
2023-12-14T04:45:45.047Z,50.877850
2023-12-14T04:46:45.069Z,50.877850
2023-12-14T04:47:45.019Z,50.877850
2023-12-14T04:48:45.068Z,50.877850
2023-12-14T04:49:45.044Z,50.877850
2023-12-14T04:50:44.962Z,50.877850
2023-12-14T04:51:44.957Z,50.877850
2023-12-14T04:52:44.980Z,50.877850
2023-12-14T04:53:44.897Z,50.877850
2023-12-14T04:54:44.910Z,50.877850
2023-12-14T04:55:46.189Z,50.877850
2023-12-14T04:56:44.937Z,50.877850
2023-12-14T04:57:44.911Z,50.877850
2023-12-14T04:58:44.883Z,50.877850
2023-12-14T04:59:44.866Z,50.877850
2023-12-14T05:00:44.871Z,50.877850
2023-12-14T05:01:44.878Z,50.877850
2023-12-14T05:02:44.834Z,50.877850
2023-12-14T05:03:44.831Z,50.877850
2023-12-14T05:04:44.823Z,50.877850
2023-12-14T05:05:44.849Z,50.877850
2023-12-14T05:06:44.803Z,50.877850
2023-12-14T05:07:44.811Z,50.877850
2023-12-14T05:08:44.780Z,50.877850
2023-12-14T05:09:44.818Z,50.877850
2023-12-14T05:10:44.797Z,50.877850
2023-12-14T05:11:44.733Z,50.877850
2023-12-14T05:12:44.708Z,50.877850
2023-12-14T05:13:44.723Z,50.877850
2023-12-14T05:14:44.923Z,50.877850
2023-12-14T05:15:44.714Z,50.877850
2023-12-14T05:16:44.722Z,50.877850
2023-12-14T05:17:44.704Z,50.877850
2023-12-14T05:18:44.713Z,50.877850
2023-12-14T05:19:44.698Z,50.877850
2023-12-14T05:20:44.646Z,50.877850
2023-12-14T05:21:44.641Z,50.877850
2023-12-14T05:22:44.623Z,50.877850
2023-12-14T05:23:44.605Z,50.877850
2023-12-14T05:24:44.610Z,50.877850
2023-12-14T05:25:44.608Z,50.877850
2023-12-14T05:26:44.585Z,50.877850
2023-12-14T05:27:44.580Z,50.877850
2023-12-14T05:28:45.547Z,50.877850
2023-12-14T05:29:44.601Z,50.877850
2023-12-14T05:30:44.590Z,50.877850
2023-12-14T05:31:44.585Z,50.877850
2023-12-14T05:32:44.638Z,50.877850
2023-12-14T05:33:44.670Z,50.877850
2023-12-14T05:34:44.562Z,50.877850
2023-12-14T05:35:44.491Z,50.877850
2023-12-14T05:36:44.495Z,50.877850
2023-12-14T05:37:44.555Z,50.877850
2023-12-14T05:38:44.483Z,50.877850
2023-12-14T05:39:44.474Z,50.877850
2023-12-14T05:40:44.453Z,50.877850
2023-12-14T05:41:44.465Z,50.877850
2023-12-14T05:42:44.457Z,50.877850
2023-12-14T05:43:44.461Z,50.877850
2023-12-14T05:44:44.432Z,50.877850
2023-12-14T05:45:44.453Z,50.877850
2023-12-14T05:46:44.438Z,50.877850
2023-12-14T05:47:44.489Z,50.877850
2023-12-14T05:48:44.392Z,50.877850
2023-12-14T05:49:44.447Z,50.877850
2023-12-14T05:50:44.343Z,50.877850
2023-12-14T05:51:44.348Z,50.877850
2023-12-14T05:52:44.398Z,50.877850
2023-12-14T05:53:44.358Z,50.877850
2023-12-14T05:54:44.313Z,50.877850
2023-12-14T05:55:44.318Z,50.877850
2023-12-14T05:56:44.312Z,50.877850
2023-12-14T05:57:44.291Z,50.877850
2023-12-14T05:58:44.290Z,50.877850
2023-12-14T05:59:44.246Z,50.877850
2023-12-14T06:00:44.273Z,50.877850
2023-12-14T06:01:44.450Z,50.877850
2023-12-14T06:02:44.401Z,50.877850
2023-12-14T06:03:44.291Z,50.877850
2023-12-14T06:04:45.102Z,50.877850
2023-12-14T06:05:44.286Z,50.877850
2023-12-14T06:06:44.207Z,50.877850
2023-12-14T06:07:44.232Z,50.877850
2023-12-14T06:08:44.154Z,50.877850
2023-12-14T06:09:44.150Z,50.877850
2023-12-14T06:10:44.232Z,50.877850
2023-12-14T06:11:44.206Z,50.877850
2023-12-14T06:12:44.127Z,50.877850
2023-12-14T06:13:44.189Z,50.877850
2023-12-14T06:14:44.091Z,50.877850
2023-12-14T06:15:44.133Z,50.877850
2023-12-14T06:16:44.140Z,50.877850
2023-12-14T06:17:44.328Z,50.877850
2023-12-14T06:18:44.180Z,50.877850
2023-12-14T06:19:44.096Z,50.877850
2023-12-14T06:20:44.079Z,50.877850
2023-12-14T06:21:44.042Z,50.877850
2023-12-14T06:22:44.051Z,50.877850
2023-12-14T06:23:44.045Z,50.877850
2023-12-14T06:24:44.025Z,50.877850
2023-12-14T06:25:44.029Z,50.877850
2023-12-14T06:26:43.992Z,50.877850
2023-12-14T06:27:43.964Z,50.877850
2023-12-14T06:28:44.025Z,50.877850
2023-12-14T06:29:43.997Z,50.877850
2023-12-14T06:30:44.044Z,50.877850
2023-12-14T06:31:43.972Z,50.877850
2023-12-14T06:32:43.970Z,50.877850
2023-12-14T06:33:44.053Z,50.877850
2023-12-14T06:34:43.947Z,50.877850
2023-12-14T06:35:43.896Z,50.877850
2023-12-14T06:36:43.870Z,50.877850
2023-12-14T06:37:43.889Z,50.877850
2023-12-14T06:38:43.844Z,50.877850
2023-12-14T06:39:43.856Z,50.877850
2023-12-14T06:40:43.853Z,50.877850
2023-12-14T06:41:43.823Z,50.877850
2023-12-14T06:42:44.840Z,50.877850
2023-12-14T06:43:44.497Z,50.877850
2023-12-14T06:44:43.803Z,50.877850
2023-12-14T06:45:43.799Z,50.877850
2023-12-14T06:46:43.792Z,50.877850
2023-12-14T06:47:45.293Z,50.877850
2023-12-14T06:48:44.574Z,50.877850
2023-12-14T06:49:43.881Z,50.877850
2023-12-14T06:50:45.941Z,50.877850
2023-12-14T06:51:43.715Z,50.877850
2023-12-14T06:52:43.913Z,50.877850
2023-12-14T06:53:43.712Z,50.877850
2023-12-14T06:54:43.691Z,50.877850
2023-12-14T06:55:43.769Z,50.877850
2023-12-14T06:56:43.662Z,50.877850
2023-12-14T06:57:43.657Z,50.877850
2023-12-14T06:58:43.746Z,50.877850
2023-12-14T06:59:43.658Z,50.877850
2023-12-14T07:00:43.649Z,50.877850
2023-12-14T07:01:43.644Z,50.877850
2023-12-14T07:02:43.606Z,50.877850
2023-12-14T07:03:44.845Z,50.877850
2023-12-14T07:06:35.441Z,50.877850
2023-12-14T07:06:43.586Z,50.877850
2023-12-14T07:07:43.626Z,50.877850
2023-12-14T07:08:43.576Z,50.877850
2023-12-14T07:09:43.583Z,50.877850
2023-12-14T07:10:46.373Z,50.877850
2023-12-14T07:11:44.553Z,50.877850
2023-12-14T07:12:43.583Z,50.877850
2023-12-14T07:13:43.501Z,50.877850
2023-12-14T07:14:43.496Z,50.877850
2023-12-14T07:15:43.474Z,50.877850
2023-12-14T07:16:43.517Z,50.877850
2023-12-14T07:17:43.602Z,50.877850
2023-12-14T07:18:43.561Z,50.877850
2023-12-14T07:19:43.497Z,50.877850
2023-12-14T07:20:43.443Z,50.877850
2023-12-14T07:21:43.438Z,50.877850
2023-12-14T07:22:43.457Z,50.877850
2023-12-14T07:23:43.434Z,50.877850
2023-12-14T07:24:52.176Z,50.877850
2023-12-14T07:25:45.426Z,50.877850
2023-12-14T07:26:43.398Z,50.877850
2023-12-14T07:27:43.362Z,50.877850
2023-12-14T07:28:43.373Z,50.877850
2023-12-14T07:29:43.333Z,50.877850
2023-12-14T07:30:43.904Z,50.877850
2023-12-14T07:31:43.365Z,50.877850
2023-12-14T07:32:43.322Z,50.877850
2023-12-14T07:33:43.360Z,50.877850
2023-12-14T07:34:43.284Z,50.877850
2023-12-14T07:35:43.284Z,50.877850
2023-12-14T07:36:43.334Z,50.877850
2023-12-14T07:37:43.285Z,50.877850
2023-12-14T07:38:43.277Z,50.877850
2023-12-14T07:39:43.236Z,50.877850
2023-12-14T07:40:43.278Z,50.877850
2023-12-14T07:41:43.216Z,50.877850
2023-12-14T07:42:43.241Z,50.877850
2023-12-14T07:43:43.302Z,50.877850
2023-12-14T07:44:43.197Z,50.877850
2023-12-14T07:45:43.192Z,50.877850
2023-12-14T07:46:43.350Z,50.877850
2023-12-14T07:47:43.225Z,50.877850
2023-12-14T07:48:43.177Z,50.877850
2023-12-14T07:49:43.222Z,50.877850
2023-12-14T07:50:43.132Z,50.877850
2023-12-14T07:51:43.115Z,50.877850
2023-12-14T07:52:43.106Z,50.877850
2023-12-14T07:53:43.125Z,50.877850
2023-12-14T07:54:43.132Z,50.877850
2023-12-14T07:55:43.088Z,50.877850
2023-12-14T07:56:43.071Z,50.877850
2023-12-14T07:57:43.107Z,50.877850
2023-12-14T07:58:43.195Z,50.877850
2023-12-14T07:59:43.110Z,50.877850
2023-12-14T08:00:43.062Z,50.877850
2023-12-14T08:01:43.032Z,50.877850
2023-12-14T08:02:43.013Z,50.877850
2023-12-14T08:03:43.052Z,50.877850
2023-12-14T08:04:43.023Z,50.877850
2023-12-14T08:05:43.022Z,50.877850
2023-12-14T08:06:42.982Z,50.877850
2023-12-14T08:07:43.061Z,50.877850
2023-12-14T08:08:42.957Z,50.877850
2023-12-14T08:09:42.914Z,50.877850
2023-12-14T08:10:42.989Z,50.877850
2023-12-14T08:11:42.945Z,50.877850
2023-12-14T08:12:42.926Z,50.877850
2023-12-14T08:13:42.938Z,50.877850
2023-12-14T08:14:42.868Z,50.877850
2023-12-14T08:15:42.854Z,50.877850
2023-12-14T08:16:42.898Z,50.877850
2023-12-14T08:17:42.911Z,50.877850
2023-12-14T08:18:42.853Z,50.877850
2023-12-14T08:19:42.829Z,50.877850
2023-12-14T08:20:42.796Z,50.877850
2023-12-14T08:21:42.804Z,50.877850
2023-12-14T08:22:42.830Z,50.877850
2023-12-14T08:23:42.781Z,50.877850
2023-12-14T08:24:42.788Z,50.877850
2023-12-14T08:25:42.823Z,50.877850
2023-12-14T08:26:42.740Z,50.877850
2023-12-14T08:27:42.753Z,50.877850
2023-12-14T08:28:42.758Z,50.877850
2023-12-14T08:29:42.671Z,50.877850
2023-12-14T08:30:42.704Z,50.877850
2023-12-14T08:31:42.777Z,50.877850
2023-12-14T08:32:42.878Z,50.877850
2023-12-14T08:33:43.212Z,50.877850
2023-12-14T08:34:42.702Z,50.877850
2023-12-14T08:35:42.676Z,50.877850
2023-12-14T08:36:42.642Z,50.877850
2023-12-14T08:37:42.691Z,50.877850
2023-12-14T08:38:42.628Z,50.877850
2023-12-14T08:39:42.590Z,50.877850
2023-12-14T08:40:42.629Z,50.877850
2023-12-14T08:41:42.652Z,50.877850
2023-12-14T08:42:42.541Z,50.877850
2023-12-14T08:43:42.615Z,50.877850
2023-12-14T08:44:42.642Z,50.877850
2023-12-14T08:45:47.293Z,50.877850
2023-12-14T08:46:42.540Z,50.877850
2023-12-14T08:47:42.645Z,50.877850
2023-12-14T08:48:42.555Z,50.877850
2023-12-14T08:49:42.512Z,50.877850
2023-12-14T08:50:42.570Z,50.877850
2023-12-14T08:51:45.525Z,50.877850
2023-12-14T08:52:56.373Z,50.877850
2023-12-14T08:53:54.265Z,50.877850
2023-12-14T08:54:50.263Z,50.877850
2023-12-14T08:55:59.876Z,50.877850
2023-12-14T08:56:44.474Z,50.877850
2023-12-14T08:57:42.453Z,50.877850
2023-12-14T08:58:42.568Z,50.877850
2023-12-14T08:59:44.482Z,50.877850
2023-12-14T09:00:43.413Z,50.877850
2023-12-14T09:01:42.471Z,50.877850
2023-12-14T09:02:42.585Z,50.877850
2023-12-14T09:03:42.369Z,50.877850
2023-12-14T09:04:42.403Z,50.877850
2023-12-14T09:05:42.394Z,50.877850
2023-12-14T09:06:42.347Z,50.877850
2023-12-14T09:07:42.386Z,50.877850
2023-12-14T09:08:42.295Z,50.877850
2023-12-14T09:09:42.326Z,50.877850
2023-12-14T09:10:42.301Z,50.877850
2023-12-14T09:11:42.284Z,50.877850
2023-12-14T09:12:42.293Z,50.877850
2023-12-14T09:13:42.298Z,50.877850
2023-12-14T09:14:42.328Z,50.877850
2023-12-14T09:15:42.218Z,50.877850
2023-12-14T09:16:42.239Z,50.877850
2023-12-14T09:17:42.616Z,50.877850
2023-12-14T09:18:42.224Z,50.877850
2023-12-14T09:19:42.190Z,50.877850
2023-12-14T09:20:42.163Z,50.877850
2023-12-14T09:21:46.610Z,50.877850
2023-12-14T09:22:42.216Z,50.877850
2023-12-14T09:23:42.164Z,50.877850
2023-12-14T09:24:42.155Z,50.877850
2023-12-14T09:25:42.227Z,50.877850
2023-12-14T09:26:42.084Z,50.877850
2023-12-14T09:27:42.102Z,50.877850
2023-12-14T09:28:42.302Z,50.877850
2023-12-14T09:29:42.069Z,50.877850
2023-12-14T09:30:42.145Z,50.877850
2023-12-14T09:31:42.092Z,50.877850
2023-12-14T09:32:42.132Z,50.877850
2023-12-14T09:33:42.221Z,50.877850
2023-12-14T09:34:42.036Z,50.877850
2023-12-14T09:35:42.004Z,50.877850
2023-12-14T09:36:42.004Z,50.877850
2023-12-14T09:37:42.010Z,50.877850
2023-12-14T09:38:42.005Z,50.877850
2023-12-14T09:39:42.028Z,50.877850
2023-12-14T09:40:41.984Z,50.877850
2023-12-14T09:41:42.062Z,50.877850
2023-12-14T09:42:42.087Z,50.877850
2023-12-14T09:43:42.970Z,50.877850
2023-12-14T09:44:41.992Z,50.877850
2023-12-14T09:45:42.151Z,50.877850
2023-12-14T09:46:41.984Z,50.877850
2023-12-14T09:47:41.931Z,50.877850
2023-12-14T09:48:41.935Z,50.877850
2023-12-14T09:49:41.981Z,50.877850
2023-12-14T09:50:41.951Z,50.877850
2023-12-14T09:51:41.872Z,50.877850
2023-12-14T09:52:41.854Z,50.877850
2023-12-14T09:53:41.875Z,50.877850
2023-12-14T09:54:42.022Z,50.877850
2023-12-14T09:55:42.856Z,50.877850
2023-12-14T09:56:44.902Z,50.877850
2023-12-14T09:57:43.396Z,50.877850
2023-12-14T09:58:45.176Z,50.877850
2023-12-14T09:59:41.751Z,50.877850
2023-12-14T10:00:41.778Z,50.877850
2023-12-14T10:01:43.273Z,50.877850
2023-12-14T10:02:41.734Z,50.877850
2023-12-14T10:03:41.774Z,50.877850
2023-12-14T10:04:41.811Z,50.877850
2023-12-14T10:05:41.882Z,50.877850
2023-12-14T10:06:41.760Z,50.877850
2023-12-14T10:07:41.723Z,50.877850
2023-12-14T10:08:41.696Z,50.877850
2023-12-14T10:09:41.666Z,50.877850
2023-12-14T10:10:43.323Z,50.877850
2023-12-14T10:11:48.527Z,50.877850
2023-12-14T10:12:45.792Z,50.877850
2023-12-14T22:02:31.195Z,50.875092
2023-12-14T22:03:31.175Z,50.875340
2023-12-14T22:04:31.139Z,50.875519
2023-12-14T22:05:31.219Z,50.875519
2023-12-14T22:06:31.166Z,50.875519
2023-12-14T22:07:31.081Z,50.875519
2023-12-14T22:08:31.130Z,50.875519
2023-12-14T22:09:31.072Z,50.875519
2023-12-14T22:10:31.089Z,50.875519
2023-12-14T22:11:31.078Z,50.875519
2023-12-14T22:12:32.043Z,50.875519
2023-12-14T22:13:31.031Z,50.875519
2023-12-14T22:14:31.065Z,50.875519
2023-12-14T22:15:30.999Z,50.875519
2023-12-14T22:16:31.000Z,50.875519
2023-12-14T22:17:31.259Z,50.875519
2023-12-14T22:18:31.144Z,50.875519
2023-12-14T22:19:30.984Z,50.875519
2023-12-14T22:20:30.976Z,50.875519
2023-12-14T22:21:30.976Z,50.875519
2023-12-14T22:22:30.961Z,50.875519
2023-12-14T22:23:30.973Z,50.875519
2023-12-14T22:24:30.918Z,50.875519
2023-12-14T22:25:30.904Z,50.875519
2023-12-14T22:26:30.986Z,50.875519
2023-12-14T22:27:30.913Z,50.875519
2023-12-14T22:28:31.540Z,50.875519
2023-12-14T22:29:30.926Z,50.875519
2023-12-14T22:30:30.874Z,50.875519
2023-12-14T22:31:30.852Z,50.875519
2023-12-14T22:32:30.912Z,50.875519
2023-12-14T22:33:30.928Z,50.875519
2023-12-14T22:34:30.827Z,50.875519
2023-12-14T22:35:30.878Z,50.875519
2023-12-14T22:36:31.849Z,50.875519
2023-12-14T22:37:30.807Z,50.875519
2023-12-14T22:38:30.844Z,50.875519
2023-12-14T22:39:30.773Z,50.875519
